createdAt,value
2022-11-17T00:00:51.801Z,19.75
2022-11-17T00:03:20.092Z,18.27
2022-11-17T00:05:48.297Z,18.65
2022-11-17T00:08:19.236Z,18.67
2022-11-17T00:10:49.498Z,20.25
2022-11-17T00:13:39.086Z,15.70
2022-11-17T00:16:07.740Z,18.63
2022-11-17T00:18:53.301Z,18.13
2022-11-17T00:21:22.167Z,17.67
2022-11-17T00:23:50.823Z,19.80
2022-11-17T00:26:20.718Z,18.88
2022-11-17T00:28:53.709Z,17.92
2022-11-17T00:31:39.719Z,15.70
2022-11-17T00:34:08.543Z,11.68
2022-11-17T00:36:39.827Z,12.77
2022-11-17T00:39:08.417Z,10.73
2022-11-17T00:41:36.720Z,12.07
2022-11-17T00:44:06.998Z,10.90
2022-11-17T00:46:35.606Z,13.80
2022-11-17T00:49:03.819Z,15.15
2022-11-17T00:51:32.185Z,14.20
2022-11-17T00:54:02.904Z,14.85
2022-11-17T00:57:03.012Z,14.85
2022-11-17T00:59:32.915Z,14.20
2022-11-17T01:02:01.256Z,15.07
2022-11-17T01:04:29.665Z,15.10
2022-11-17T01:06:57.877Z,15.40
2022-11-17T01:09:26.163Z,14.95
2022-11-17T01:11:54.878Z,16.27
2022-11-17T01:14:25.249Z,18.30
2022-11-17T01:16:55.514Z,18.65
2022-11-17T01:19:25.120Z,17.38
2022-11-17T01:21:55.328Z,18.90
2022-11-17T01:24:23.526Z,17.90
2022-11-17T01:26:52.070Z,18.10
2022-11-17T01:29:20.380Z,18.15
2022-11-17T01:31:52.060Z,20.17
2022-11-17T01:34:21.826Z,17.52
2022-11-17T01:37:22.258Z,20.38
2022-11-17T01:39:50.933Z,19.17
2022-11-17T01:42:20.815Z,18.30
2022-11-17T01:45:02.923Z,17.92
2022-11-17T01:47:44.481Z,15.27
2022-11-17T01:50:21.730Z,16.70
2022-11-17T01:52:54.046Z,19.33
2022-11-17T01:55:24.046Z,16.73
2022-11-17T01:57:54.856Z,18.58
2022-11-17T02:00:23.343Z,17.95
2022-11-17T02:02:52.097Z,19.10
2022-11-17T02:05:34.793Z,15.10
2022-11-17T02:10:51.631Z,13.95
2022-11-17T02:13:20.729Z,14.32
2022-11-17T02:16:12.802Z,13.13
2022-11-17T02:18:41.081Z,12.77
2022-11-17T02:21:35.369Z,12.55
2022-11-17T02:24:24.675Z,13.63
2022-11-17T02:27:43.494Z,14.30
2022-11-17T02:30:14.763Z,11.98
2022-11-17T02:32:50.619Z,14.25
2022-11-17T02:35:24.592Z,12.95
2022-11-17T02:38:00.906Z,10.68
2022-11-17T02:40:33.896Z,13.23
2022-11-17T02:43:21.050Z,12.57
2022-11-17T02:45:53.560Z,12.20
2022-11-17T02:48:33.902Z,12.48
2022-11-17T02:51:03.435Z,8.07
2022-11-17T02:53:32.323Z,11.95
2022-11-17T02:56:03.187Z,12.98
2022-11-17T02:58:31.457Z,13.30
2022-11-17T03:01:45.885Z,14.20
2022-11-17T03:04:27.673Z,15.13
2022-11-17T03:07:08.095Z,13.70
2022-11-17T03:09:47.993Z,14.30
2022-11-17T03:12:23.732Z,12.82
2022-11-17T03:14:55.552Z,13.95
2022-11-17T03:17:29.118Z,16.48
2022-11-17T03:19:59.905Z,14.73
2022-11-17T03:22:35.037Z,15.60
2022-11-17T03:25:05.930Z,14.00
2022-11-17T03:27:37.394Z,11.77
2022-11-17T03:30:07.516Z,12.73
2022-11-17T03:32:38.742Z,11.98
2022-11-17T03:35:30.643Z,13.43
2022-11-17T03:38:02.226Z,14.50
2022-11-17T03:40:33.923Z,13.73
2022-11-17T03:43:05.628Z,12.05
2022-11-17T03:45:35.971Z,14.48
2022-11-17T03:48:09.284Z,14.07
2022-11-17T03:53:07.848Z,11.18
2022-11-17T03:56:01.112Z,11.23
2022-11-17T03:58:31.394Z,12.43
2022-11-17T04:01:04.012Z,11.75
2022-11-17T04:03:35.326Z,12.20
2022-11-17T04:06:05.773Z,9.27
2022-11-17T04:08:34.201Z,13.40
2022-11-17T04:11:43.913Z,12.43
2022-11-17T04:14:29.734Z,12.68
2022-11-17T04:16:57.947Z,11.23
2022-11-17T04:19:47.850Z,11.38
2022-11-17T04:22:17.527Z,11.82
2022-11-17T04:24:45.741Z,12.57
2022-11-17T04:27:31.094Z,12.65
2022-11-17T04:30:00.920Z,11.38
2022-11-17T04:32:29.160Z,12.20
2022-11-17T04:34:57.379Z,13.05
2022-11-17T04:37:28.968Z,12.88
2022-11-17T04:39:57.463Z,7.32
2022-11-17T04:42:24.703Z,9.90
2022-11-17T04:45:10.831Z,9.60
2022-11-17T04:47:39.034Z,11.05
2022-11-17T04:50:08.397Z,12.52
2022-11-17T04:52:38.076Z,11.85
2022-11-17T04:55:07.063Z,11.85
2022-11-17T04:57:40.206Z,11.48
2022-11-17T05:00:26.992Z,12.52
2022-11-17T05:02:55.484Z,13.68
2022-11-17T05:05:23.725Z,12.75
2022-11-17T05:07:53.243Z,12.13
2022-11-17T05:10:44.782Z,12.57
2022-11-17T05:13:25.017Z,13.02
2022-11-17T05:16:11.551Z,10.55
2022-11-17T05:18:39.763Z,10.95
2022-11-17T05:21:10.411Z,11.95
2022-11-17T05:23:55.390Z,10.80
2022-11-17T05:26:24.184Z,10.82
2022-11-17T05:28:52.892Z,12.32
2022-11-17T05:31:21.272Z,11.70
2022-11-17T05:33:51.314Z,11.10
2022-11-17T05:36:19.867Z,10.30
2022-11-17T05:39:04.478Z,9.98
2022-11-17T05:41:33.430Z,9.13
2022-11-17T05:44:03.878Z,13.20
2022-11-17T05:46:32.014Z,10.30
2022-11-17T05:49:00.255Z,10.45
2022-11-17T05:51:52.664Z,9.68
2022-11-17T05:54:22.707Z,8.17
2022-11-17T05:57:16.589Z,8.40
2022-11-17T06:02:19.197Z,6.20
2022-11-17T06:04:47.458Z,7.72
2022-11-17T06:07:21.202Z,8.05
2022-11-17T06:09:51.516Z,8.60
2022-11-17T06:12:19.964Z,8.23
2022-11-17T06:14:48.369Z,6.57
2022-11-17T06:17:22.223Z,4.90
2022-11-17T06:19:53.127Z,6.25
2022-11-17T06:22:27.226Z,5.32
2022-11-17T06:24:57.232Z,6.22
2022-11-17T06:27:26.077Z,5.18
2022-11-17T06:30:04.085Z,5.25
2022-11-17T06:32:36.713Z,5.80
2022-11-17T06:35:05.916Z,5.13
2022-11-17T06:37:34.049Z,3.72
2022-11-17T06:40:27.881Z,5.00
2022-11-17T06:45:38.050Z,4.80
2022-11-17T06:48:06.780Z,4.40
2022-11-17T06:50:35.245Z,5.78
2022-11-17T06:53:04.820Z,5.55
2022-11-17T06:55:34.844Z,6.35
2022-11-17T06:58:04.437Z,6.90
2022-11-17T07:00:32.707Z,6.30
2022-11-17T07:03:01.921Z,4.63
2022-11-17T07:06:12.456Z,5.75
2022-11-17T07:08:39.015Z,5.15
2022-11-17T07:11:10.138Z,4.65
2022-11-17T07:13:39.195Z,4.40
2022-11-17T07:16:09.497Z,5.00
2022-11-17T07:18:39.207Z,4.43
2022-11-17T07:21:10.308Z,4.80
2022-11-17T07:23:41.356Z,4.63
2022-11-17T07:26:11.064Z,6.25
2022-11-17T07:29:54.812Z,4.90
2022-11-17T07:31:30.887Z,3.72
2022-11-17T07:33:59.666Z,4.53
2022-11-17T07:36:27.920Z,4.57
2022-11-17T07:39:21.690Z,4.47
2022-11-17T07:41:58.783Z,4.70
2022-11-17T07:44:27.309Z,4.50
2022-11-17T07:46:56.217Z,4.78
2022-11-17T07:49:24.587Z,4.10
2022-11-17T07:51:52.924Z,3.22
2022-11-17T07:54:21.243Z,3.70
2022-11-17T07:56:49.497Z,3.67
2022-11-17T07:59:21.514Z,3.40
2022-11-17T08:01:49.922Z,3.38
2022-11-17T08:04:34.226Z,3.28
2022-11-17T08:07:03.196Z,3.17
2022-11-17T08:09:31.485Z,3.00
2022-11-17T08:12:00.072Z,2.65
2022-11-17T08:14:31.215Z,2.45
2022-11-17T08:17:02.856Z,3.15
2022-11-17T08:19:31.216Z,3.30
2022-11-17T08:21:59.482Z,2.97
2022-11-17T08:24:27.820Z,2.85
2022-11-17T08:26:59.584Z,2.72
2022-11-17T08:29:29.109Z,3.17
2022-11-17T08:31:57.458Z,2.95
2022-11-17T08:34:25.756Z,2.70
2022-11-17T08:36:53.962Z,3.28
2022-11-17T08:39:26.938Z,3.42
2022-11-17T08:42:13.583Z,3.75
2022-11-17T08:44:43.511Z,3.28
2022-11-17T08:47:11.772Z,3.95
2022-11-17T08:49:39.945Z,5.10
2022-11-17T08:52:08.689Z,4.05
2022-11-17T08:54:37.118Z,4.82
2022-11-17T08:57:05.393Z,4.43
2022-11-17T08:59:33.698Z,4.43
2022-11-17T09:02:03.445Z,5.35
2022-11-17T09:04:32.064Z,5.50
2022-11-17T09:07:00.877Z,4.43
2022-11-17T09:09:31.680Z,4.88
2022-11-17T09:11:59.990Z,4.35
2022-11-17T09:14:51.550Z,5.60
2022-11-17T09:17:22.485Z,5.82
2022-11-17T09:19:50.998Z,4.68
2022-11-17T09:22:20.085Z,4.07
2022-11-17T09:24:48.356Z,4.57
2022-11-17T09:27:16.649Z,3.47
2022-11-17T09:29:44.942Z,3.92
2022-11-17T09:32:13.596Z,3.95
2022-11-17T09:34:43.385Z,3.35
2022-11-17T09:37:11.881Z,4.13
2022-11-17T09:39:40.104Z,3.30
2022-11-17T09:42:13.294Z,3.90
2022-11-17T09:44:46.685Z,3.65
2022-11-17T09:49:58.449Z,2.88
2022-11-17T09:52:38.588Z,2.45
2022-11-17T09:55:23.771Z,3.28
2022-11-17T09:57:58.244Z,3.30
2022-11-17T10:00:26.993Z,2.05
2022-11-17T10:03:22.846Z,2.70
2022-11-17T10:05:56.507Z,2.55
2022-11-17T10:08:40.984Z,2.42
2022-11-17T10:11:25.867Z,2.15
2022-11-17T10:14:13.410Z,2.05
2022-11-17T10:17:12.954Z,2.53
2022-11-17T10:19:42.079Z,2.30
2022-11-17T10:22:23.378Z,2.03
2022-11-17T10:24:58.055Z,1.67
2022-11-17T10:27:42.557Z,2.00
2022-11-17T10:30:32.974Z,2.22
2022-11-17T10:33:02.968Z,1.73
2022-11-17T10:35:32.586Z,1.50
2022-11-17T10:38:23.032Z,1.70
2022-11-17T10:40:52.531Z,1.85
2022-11-17T10:43:25.291Z,2.08
2022-11-17T10:45:55.570Z,1.52
2022-11-17T10:48:29.470Z,2.10
2022-11-17T10:51:09.479Z,2.22
2022-11-17T10:53:45.715Z,2.55
2022-11-17T10:56:16.897Z,2.17
2022-11-17T10:59:04.084Z,1.92
2022-11-17T11:01:35.421Z,1.42
2022-11-17T11:04:04.565Z,1.75
2022-11-17T11:06:33.841Z,2.15
2022-11-17T11:09:06.266Z,1.73
2022-11-17T11:11:49.993Z,2.20
2022-11-17T11:14:22.142Z,2.00
2022-11-17T11:16:51.690Z,1.90
2022-11-17T11:19:22.960Z,1.90
2022-11-17T11:22:21.185Z,2.35
2022-11-17T11:25:10.869Z,1.70
2022-11-17T11:28:08.547Z,2.38
2022-11-17T11:31:01.040Z,1.88
2022-11-17T11:33:35.346Z,2.63
2022-11-17T11:36:22.434Z,2.38
2022-11-17T11:38:56.996Z,3.13
2022-11-17T11:41:57.482Z,3.15
2022-11-17T11:44:42.899Z,3.75
2022-11-17T11:47:41.388Z,2.83
2022-11-17T11:50:14.603Z,2.70
2022-11-17T11:52:50.492Z,2.33
2022-11-17T11:55:22.735Z,2.30
2022-11-17T11:57:57.040Z,2.47
2022-11-17T12:00:32.969Z,2.30
2022-11-17T12:03:05.955Z,2.08
2022-11-17T12:05:38.905Z,2.50
2022-11-17T12:08:10.960Z,2.28
2022-11-17T12:10:45.929Z,2.13
2022-11-17T12:13:18.685Z,2.05
2022-11-17T12:15:46.996Z,2.13
2022-11-17T12:18:34.458Z,3.20
2022-11-17T12:21:05.849Z,2.83
2022-11-17T12:23:39.835Z,2.40
2022-11-17T12:26:08.863Z,4.00
2022-11-17T12:28:40.244Z,2.33
2022-11-17T12:31:11.115Z,2.53
2022-11-17T12:34:24.910Z,2.13
2022-11-17T12:38:21.885Z,2.50
2022-11-17T12:40:48.375Z,1.63
2022-11-17T12:43:24.094Z,1.80
2022-11-17T12:46:05.851Z,1.45
2022-11-17T12:48:36.243Z,2.60
2022-11-17T12:51:18.972Z,1.92
2022-11-17T12:54:00.482Z,1.95
2022-11-17T12:56:41.394Z,2.25
2022-11-17T12:59:43.128Z,2.40
2022-11-17T13:02:28.457Z,2.75
2022-11-17T13:04:59.770Z,2.70
2022-11-17T13:07:30.221Z,3.28
2022-11-17T13:10:02.808Z,4.35
2022-11-17T13:12:33.531Z,6.47
2022-11-17T13:15:03.847Z,7.53
2022-11-17T13:17:42.362Z,5.53
2022-11-17T13:20:21.839Z,4.72
2022-11-17T13:23:00.958Z,2.85
2022-11-17T13:25:31.031Z,4.10
2022-11-17T13:28:04.435Z,3.92
2022-11-17T13:30:34.209Z,3.42
2022-11-17T13:33:04.482Z,3.83
2022-11-17T13:35:34.025Z,4.90
2022-11-17T13:38:04.019Z,4.43
2022-11-17T13:40:32.586Z,4.75
2022-11-17T13:43:01.494Z,3.53
2022-11-17T13:45:29.913Z,3.30
2022-11-17T13:47:59.319Z,3.75
2022-11-17T13:51:15.377Z,3.95
2022-11-17T13:53:46.424Z,2.90
2022-11-17T13:56:25.891Z,2.60
2022-11-17T13:58:54.486Z,2.72
2022-11-17T14:01:24.707Z,2.83
2022-11-17T14:04:20.814Z,4.00
2022-11-17T14:07:07.191Z,4.20
2022-11-17T14:09:47.771Z,4.32
2022-11-17T14:12:18.238Z,3.78
2022-11-17T14:14:46.747Z,3.10
2022-11-17T14:17:20.232Z,3.42
2022-11-17T14:19:49.366Z,4.20
2022-11-17T14:22:51.284Z,4.63
2022-11-17T14:25:20.987Z,3.63
2022-11-17T14:27:56.582Z,2.63
2022-11-17T14:30:25.167Z,3.72
2022-11-17T14:33:07.818Z,2.60
2022-11-17T14:35:39.037Z,4.13
2022-11-17T14:38:07.171Z,3.25
2022-11-17T14:40:36.834Z,3.15
2022-11-17T14:43:05.228Z,3.38
2022-11-17T14:45:39.494Z,3.08
2022-11-17T14:48:08.220Z,3.67
2022-11-17T14:50:36.523Z,2.72
2022-11-17T14:53:14.768Z,4.53
2022-11-17T14:55:44.271Z,1.90
2022-11-17T14:58:12.573Z,3.35
2022-11-17T15:00:41.056Z,3.05
2022-11-17T15:03:09.386Z,2.70
2022-11-17T15:05:37.589Z,2.95
2022-11-17T15:08:06.051Z,2.75
2022-11-17T15:10:47.575Z,1.75
2022-11-17T15:13:17.317Z,2.33
2022-11-17T15:15:48.394Z,3.42
2022-11-17T15:18:16.701Z,3.83
2022-11-17T15:20:45.090Z,3.38
2022-11-17T15:23:13.294Z,5.10
2022-11-17T15:25:41.594Z,2.53
2022-11-17T15:28:12.620Z,3.53
2022-11-17T15:30:46.847Z,3.35
2022-11-17T15:33:15.092Z,2.70
2022-11-17T15:35:58.236Z,2.55
2022-11-17T15:38:26.458Z,2.40
2022-11-17T15:40:56.105Z,2.90
2022-11-17T15:43:27.923Z,3.20
2022-11-17T15:46:15.122Z,2.72
2022-11-17T15:49:04.007Z,3.47
2022-11-17T15:51:32.815Z,3.50
2022-11-17T15:54:31.857Z,2.58
2022-11-17T15:57:01.569Z,1.80
2022-11-17T15:59:30.147Z,2.47
2022-11-17T16:01:59.972Z,2.35
2022-11-17T16:04:29.379Z,1.83
2022-11-17T16:06:57.828Z,1.95
2022-11-17T16:09:26.103Z,2.80
2022-11-17T16:11:54.393Z,2.30
2022-11-17T16:14:22.737Z,2.15
2022-11-17T16:17:15.989Z,2.50
2022-11-17T16:19:44.212Z,2.20
2022-11-17T16:22:27.306Z,1.92
2022-11-17T16:24:55.718Z,1.30
2022-11-17T16:27:23.917Z,2.42
2022-11-17T16:29:52.228Z,2.05
2022-11-17T16:32:24.267Z,2.15
2022-11-17T16:35:10.358Z,1.85
2022-11-17T16:37:38.675Z,2.53
2022-11-17T16:40:07.784Z,1.48
2022-11-17T16:42:50.922Z,1.90
2022-11-17T16:45:43.878Z,1.48
2022-11-17T16:48:14.016Z,1.65
2022-11-17T16:50:45.239Z,1.90
2022-11-17T16:53:13.549Z,1.23
2022-11-17T16:55:42.163Z,2.50
2022-11-17T16:58:11.504Z,2.08
2022-11-17T17:00:39.788Z,1.67
2022-11-17T17:03:33.264Z,1.67
2022-11-17T17:06:06.838Z,1.42
2022-11-17T17:08:35.535Z,1.92
2022-11-17T17:11:04.590Z,2.05
2022-11-17T17:13:39.098Z,1.38
2022-11-17T17:16:11.715Z,2.20
2022-11-17T17:18:57.298Z,2.03
2022-11-17T17:21:25.641Z,1.20
2022-11-17T17:24:00.306Z,2.03
2022-11-17T17:26:30.130Z,2.50
2022-11-17T17:29:00.321Z,2.10
2022-11-17T17:31:33.876Z,1.73
2022-11-17T17:34:04.508Z,2.42
2022-11-17T17:36:33.029Z,1.50
2022-11-17T17:39:02.916Z,2.45
2022-11-17T17:41:32.604Z,2.15
2022-11-17T17:44:02.211Z,1.88
2022-11-17T17:46:31.289Z,2.75
2022-11-17T17:49:00.021Z,2.53
2022-11-17T17:51:30.197Z,2.30
2022-11-17T17:54:02.268Z,1.33
2022-11-17T17:56:31.780Z,2.25
2022-11-17T17:59:00.273Z,2.22
2022-11-17T18:01:33.351Z,2.28
2022-11-17T18:04:16.297Z,2.38
2022-11-17T18:07:13.792Z,2.20
2022-11-17T18:09:42.121Z,2.03
2022-11-17T18:12:10.893Z,2.10
2022-11-17T18:15:03.045Z,1.83
2022-11-17T18:17:31.883Z,1.58
2022-11-17T18:22:43.975Z,2.05
2022-11-17T18:25:16.615Z,3.70
2022-11-17T18:27:46.133Z,3.28
2022-11-17T18:30:15.155Z,3.20
2022-11-17T18:33:11.700Z,2.42
2022-11-17T18:35:42.687Z,3.00
2022-11-17T18:38:18.403Z,3.22
2022-11-17T18:40:46.709Z,3.05
2022-11-17T18:43:14.933Z,3.53
2022-11-17T18:45:43.354Z,2.92
2022-11-17T18:48:11.661Z,2.85
2022-11-17T18:51:18.129Z,3.08
2022-11-17T18:53:44.425Z,3.22
2022-11-17T18:56:14.967Z,4.18
2022-11-17T18:58:43.796Z,3.95
2022-11-17T19:01:14.823Z,3.40
2022-11-17T19:03:55.940Z,2.78
2022-11-17T19:06:35.950Z,3.10
2022-11-17T19:09:06.139Z,2.88
2022-11-17T19:12:00.613Z,3.80
2022-11-17T19:14:28.877Z,4.10
2022-11-17T19:17:26.416Z,3.63
2022-11-17T19:19:54.665Z,4.38
2022-11-17T19:22:23.290Z,2.58
2022-11-17T19:24:54.875Z,3.13
2022-11-17T19:27:23.172Z,2.85
2022-11-17T19:30:00.396Z,3.28
2022-11-17T19:32:28.581Z,3.92
2022-11-17T19:35:14.577Z,3.70
2022-11-17T19:38:07.391Z,4.65
2022-11-17T19:40:37.312Z,3.85
2022-11-17T19:43:07.513Z,3.50
2022-11-17T19:45:35.868Z,2.78
2022-11-17T19:48:04.276Z,2.45
2022-11-17T19:50:33.907Z,2.17
2022-11-17T19:53:02.185Z,2.67
2022-11-17T19:55:30.545Z,4.22
2022-11-17T19:58:00.291Z,2.63
2022-11-17T20:00:28.572Z,3.45
2022-11-17T20:02:56.854Z,3.17
2022-11-17T20:05:25.284Z,3.85
2022-11-17T20:07:53.658Z,2.75
2022-11-17T20:10:21.998Z,2.10
2022-11-17T20:12:50.312Z,3.67
2022-11-17T20:15:33.919Z,3.22
2022-11-17T20:18:03.043Z,3.05
2022-11-17T20:20:31.383Z,3.75
2022-11-17T20:22:59.623Z,2.72
2022-11-17T20:25:29.123Z,2.58
2022-11-17T20:27:57.360Z,3.67
2022-11-17T20:30:27.426Z,3.25
2022-11-17T20:33:09.549Z,1.70
2022-11-17T20:35:38.176Z,3.35
2022-11-17T20:38:07.293Z,3.83
2022-11-17T20:40:57.808Z,3.25
2022-11-17T20:43:26.201Z,4.05
2022-11-17T20:45:57.857Z,3.60
2022-11-17T20:48:26.678Z,2.97
2022-11-17T20:51:00.671Z,3.17
2022-11-17T20:53:43.540Z,4.10
2022-11-17T20:56:19.606Z,3.78
2022-11-17T20:58:47.751Z,3.13
2022-11-17T21:01:18.810Z,2.78
2022-11-17T21:03:47.265Z,3.08
2022-11-17T21:06:23.148Z,2.70
2022-11-17T21:08:52.088Z,2.78
2022-11-17T21:11:39.441Z,4.05
2022-11-17T21:14:09.109Z,2.92
2022-11-17T21:16:49.891Z,3.60
2022-11-17T21:20:59.879Z,3.47
2022-11-17T21:22:14.422Z,2.45
2022-11-17T21:24:42.656Z,3.50
2022-11-17T21:27:10.858Z,2.88
2022-11-17T21:29:39.053Z,3.42
2022-11-17T21:32:11.080Z,3.08
2022-11-17T21:34:49.532Z,3.65
2022-11-17T21:37:18.473Z,3.63
2022-11-17T21:39:49.325Z,2.92
2022-11-17T21:42:34.028Z,3.25
2022-11-17T21:45:02.360Z,3.35
2022-11-17T21:47:36.509Z,3.83
2022-11-17T21:50:04.971Z,3.63
2022-11-17T21:52:33.248Z,3.50
2022-11-17T21:55:01.550Z,3.45
2022-11-17T21:57:31.873Z,2.30
2022-11-17T22:00:02.358Z,3.05
2022-11-17T22:02:31.450Z,2.50
2022-11-17T22:08:17.256Z,2.33
2022-11-17T22:10:45.694Z,2.20
2022-11-17T22:13:32.599Z,3.30
2022-11-17T22:16:05.329Z,4.47
2022-11-17T22:18:38.578Z,3.80
2022-11-17T22:21:09.396Z,3.05
2022-11-17T22:23:43.019Z,3.08
2022-11-17T22:26:12.250Z,3.33
2022-11-17T22:28:40.511Z,3.17
2022-11-17T22:31:10.349Z,2.13
2022-11-17T22:33:40.213Z,2.55
2022-11-17T22:36:11.927Z,2.67
2022-11-17T22:38:40.372Z,2.10
2022-11-17T22:41:09.812Z,3.83
2022-11-17T22:43:38.222Z,3.63
2022-11-17T22:46:26.713Z,3.42
2022-11-17T22:48:55.151Z,3.20
2022-11-17T22:51:45.381Z,1.95
2022-11-17T22:54:13.583Z,2.83
2022-11-17T22:56:41.886Z,2.67
2022-11-17T22:59:10.699Z,2.80
2022-11-17T23:01:39.048Z,3.38
2022-11-17T23:04:07.614Z,1.77
2022-11-17T23:06:37.268Z,3.42
2022-11-17T23:09:05.724Z,2.70
2022-11-17T23:11:38.395Z,2.13
2022-11-17T23:14:08.096Z,3.67
2022-11-17T23:16:37.163Z,2.38
2022-11-17T23:22:01.083Z,3.17
2022-11-17T23:24:29.325Z,3.10
2022-11-17T23:26:57.546Z,2.10
2022-11-17T23:29:25.853Z,1.95
2022-11-17T23:31:54.156Z,3.13
2022-11-17T23:34:22.401Z,4.25
2022-11-17T23:36:50.595Z,3.78
2022-11-17T23:39:20.229Z,2.67
2022-11-17T23:41:48.688Z,2.97
2022-11-17T23:44:16.991Z,2.05
2022-11-17T23:46:45.331Z,3.42
2022-11-17T23:49:13.564Z,3.08
2022-11-17T23:51:41.792Z,3.72
2022-11-17T23:54:13.038Z,2.85
2022-11-17T23:56:43.216Z,2.53
2022-11-17T23:59:11.735Z,2.55
